DW4806 Saltburn-By-The-Sea UK current weather conditions

sailwx.info

Wind from 263 at 6 knots gusting 17

Air temperature 17.2° C
Dewpoint 11.3° C

Last reported at 2019-Aug-20 14:04 UTC.
Time now 2019-Aug-20 14:58 UTC

Location: N 54°34' W 000°57'.
View on Google Maps.

See reports from other nearby stations

  
Tides and Currents Weather Stations Pressure Air Temp Water Temp Dewpoint Dewpoint Depression Visibility Wind Speed Wind Dir Waves Ship Positions
date/time (UTC)wind fromknots sea level pressurealtimeterstation pressurevisibilityair tempwater tempwave heightnotes
2019-Aug-20 14:04 263 6 gusting 17 17.2
2019-Aug-20 13:47 272 6 gusting 13 17.2
2019-Aug-20 13:30 276 6 gusting 13 16.7
2019-Aug-20 13:13 254 6 gusting 14 16.7
2019-Aug-20 12:56 284 5 gusting 10 17.2
2019-Aug-20 12:39 283 5 gusting 10 16.7
2019-Aug-20 12:22 267 6 gusting 13 16.1
2019-Aug-20 12:05 259 6 gusting 12 16.7
2019-Aug-20 11:48 270 6 gusting 11 16.7
2019-Aug-20 11:31 280 6 gusting 11 16.1
2019-Aug-20 11:14 267 6 gusting 11 16.7
2019-Aug-20 10:57 285 6 gusting 12 16.1
2019-Aug-20 10:40 277 5 gusting 14 15.6
2019-Aug-20 10:23 293 6 gusting 13 15.6
2019-Aug-20 10:06 287 6 gusting 13 15.0
2019-Aug-20 09:49 278 5 gusting 8 15.0
2019-Aug-20 09:32 278 5 gusting 11 14.4
2019-Aug-20 09:15 276 6 gusting 10 15.0
2019-Aug-20 08:58 288 6 gusting 12 15.0
2019-Aug-20 08:41 289 6 gusting 13 14.4
2019-Aug-20 08:24 278 4 gusting 9 14.4
2019-Aug-20 08:07 285 5 gusting 11 13.9
2019-Aug-20 07:50 278 4 gusting 7 13.3
2019-Aug-20 07:33 274 5 gusting 9 13.3
2019-Aug-20 07:16 286 4 gusting 7 13.3
2019-Aug-20 06:59 282 3 gusting 8 12.8
2019-Aug-20 06:42 272 3 gusting 6 12.8
2019-Aug-20 06:25 286 4 gusting 7 12.8
2019-Aug-20 06:08 289 3 gusting 7 12.2
2019-Aug-20 05:51 291 3 gusting 5 12.2
2019-Aug-20 05:34 274 3 gusting 9 12.2
2019-Aug-20 05:17 257 4 gusting 8 12.2
2019-Aug-20 05:00 246 4 gusting 7 12.2
2019-Aug-20 04:43 259 4 gusting 9 12.2
2019-Aug-20 04:26 268 3 gusting 7 12.2
2019-Aug-20 04:09 279 3 gusting 7 12.8
2019-Aug-20 03:52 270 4 gusting 7 12.8
2019-Aug-19 13:01 259 7 gusting 14 17.8
2019-Aug-19 12:44 242 7 gusting 16 17.8
2019-Aug-19 12:27 241 8 gusting 15 17.2
2019-Aug-19 12:10 246 8 gusting 18 17.8
2019-Aug-19 11:53 263 10 gusting 18 17.8
2019-Aug-19 11:36 258 8 gusting 18 18.3
2019-Aug-19 11:19 250 9 gusting 18 17.8
2019-Aug-19 11:02 261 9 gusting 16 17.8
2019-Aug-19 10:45 274 8 gusting 16 17.8
2019-Aug-19 10:28 277 7 gusting 17 17.2
2019-Aug-19 10:11 269 9 gusting 17 17.2
2019-Aug-19 09:54 273 8 gusting 18 16.7
2019-Aug-19 09:37 264 7 gusting 17 16.1
2019-Aug-19 09:20 258 8 gusting 17 15.6
2019-Aug-19 09:03 266 6 gusting 16 15.6
2019-Aug-19 07:21 263 5 gusting 11 14.4
2019-Aug-19 07:04 262 5 gusting 8 14.4
2019-Aug-19 06:47 253 6 gusting 13 13.9
2019-Aug-19 06:30 255 5 gusting 12 13.9
2019-Aug-19 06:13 252 6 gusting 13 13.3
2019-Aug-19 05:56 250 7 gusting 14 13.9
2019-Aug-19 05:39 259 5 gusting 13 13.3
2019-Aug-19 05:22 259 6 gusting 15 13.3
2019-Aug-19 05:05 264 5 gusting 12 13.3
2019-Aug-19 04:48 250 4 gusting 7 13.3
2019-Aug-19 04:31 261 5 gusting 12 13.3
2019-Aug-19 04:14 267 5 gusting 11 13.3
2019-Aug-19 03:57 249 5 gusting 11 13.3
2019-Aug-19 03:40 247 4 gusting 10 13.3
2019-Aug-19 03:23 246 3 gusting 10 13.3
2019-Aug-19 03:06 242 3 gusting 9 13.3
2019-Aug-19 02:49 231 5 gusting 11 13.3
2019-Aug-19 02:32 239 5 gusting 12 13.9
2019-Aug-19 02:15 237 4 gusting 9 13.3
2019-Aug-19 01:58 233 4 gusting 9 13.3
2019-Aug-19 01:41 230 3 gusting 7 13.3
2019-Aug-19 01:24 228 4 gusting 7 13.3
2019-Aug-19 01:07 233 3 gusting 8 13.3
2019-Aug-19 00:50 232 4 gusting 10 13.3
2019-Aug-19 00:33 231 5 gusting 10 13.3
2019-Aug-18 23:59 232 6 gusting 13 13.3
2019-Aug-18 23:25 231 4 gusting 8 13.3
2019-Aug-18 23:08 227 5 gusting 8 13.3
2019-Aug-18 22:51 230 5 gusting 11 13.3
2019-Aug-18 22:34 234 4 gusting 9 13.3
2019-Aug-18 22:17 232 5 gusting 10 13.3
2019-Aug-18 22:00 229 5 gusting 11 13.3
2019-Aug-18 21:43 227 6 gusting 12 13.3
2019-Aug-18 21:26 229 4 gusting 9 13.3
2019-Aug-18 21:09 230 5 gusting 9 13.3
2019-Aug-18 20:52 233 6 gusting 13 13.3
2019-Aug-18 20:35 228 5 gusting 8 13.3
2019-Aug-18 20:18 235 5 gusting 12 13.9
2019-Aug-18 20:01 231 5 gusting 9 14.4
2019-Aug-18 19:44 235 7 gusting 18 14.4
2019-Aug-18 19:27 232 6 gusting 14 14.4
2019-Aug-18 19:10 231 6 gusting 14 14.4
2019-Aug-18 18:53 232 5 gusting 13 14.4
2019-Aug-18 18:36 234 5 gusting 9 14.4
2019-Aug-18 18:19 239 6 gusting 13 15.0
2019-Aug-18 18:02 233 6 gusting 12 14.4
2019-Aug-18 17:45 234 6 gusting 15 14.4
2019-Aug-18 17:28 247 6 gusting 16 15.0
2019-Aug-18 17:11 246 8 gusting 19 16.1
2019-Aug-18 16:54 237 6 gusting 19 16.7
2019-Aug-18 16:37 240 9 gusting 23 16.7
2019-Aug-18 16:20 245 8 gusting 18 17.2
2019-Aug-18 16:03 241 8 gusting 18 17.8
2019-Aug-18 15:46 251 8 gusting 14 18.3
2019-Aug-18 15:29 252 12 gusting 22 18.9
2019-Aug-18 15:12 251 10 gusting 19 18.9
2019-Aug-18 14:55 248 11 gusting 20 18.9
2019-Aug-18 14:38 242 9 gusting 18 18.9
2019-Aug-18 14:21 243 9 gusting 27 18.3
2019-Aug-18 14:04 256 9 gusting 18 18.3